sensor_id;sensor_type;location;lat;lon;timestamp;temperature;humidity
17669;DHT22;8953;48.694;8.940;2022-07-15T00:00:06;16.00;92.40
17669;DHT22;8953;48.694;8.940;2022-07-15T00:02:33;15.90;92.40
17669;DHT22;8953;48.694;8.940;2022-07-15T00:05:00;15.90;92.50
17669;DHT22;8953;48.694;8.940;2022-07-15T00:07:28;15.80;92.90
17669;DHT22;8953;48.694;8.940;2022-07-15T00:09:55;15.80;92.90
17669;DHT22;8953;48.694;8.940;2022-07-15T00:12:43;15.70;93.30
17669;DHT22;8953;48.694;8.940;2022-07-15T00:15:11;15.70;93.50
17669;DHT22;8953;48.694;8.940;2022-07-15T00:17:39;15.60;93.90
17669;DHT22;8953;48.694;8.940;2022-07-15T00:20:08;15.50;94.20
17669;DHT22;8953;48.694;8.940;2022-07-15T00:22:35;15.50;94.50
17669;DHT22;8953;48.694;8.940;2022-07-15T00:25:03;15.40;94.80
17669;DHT22;8953;48.694;8.940;2022-07-15T00:27:31;15.30;95.20
17669;DHT22;8953;48.694;8.940;2022-07-15T00:29:59;15.30;95.50
17669;DHT22;8953;48.694;8.940;2022-07-15T00:32:26;15.30;95.90
17669;DHT22;8953;48.694;8.940;2022-07-15T00:34:54;15.20;96.20
17669;DHT22;8953;48.694;8.940;2022-07-15T00:37:23;15.10;96.70
17669;DHT22;8953;48.694;8.940;2022-07-15T00:39:50;15.10;97.10
17669;DHT22;8953;48.694;8.940;2022-07-15T00:42:18;15.00;97.40
17669;DHT22;8953;48.694;8.940;2022-07-15T00:45:00;14.90;98.30
17669;DHT22;8953;48.694;8.940;2022-07-15T00:47:27;14.90;98.50
17669;DHT22;8953;48.694;8.940;2022-07-15T00:49:55;14.80;99.60
17669;DHT22;8953;48.694;8.940;2022-07-15T00:52:23;14.70;99.90
17669;DHT22;8953;48.694;8.940;2022-07-15T00:54:53;14.60;99.90
17669;DHT22;8953;48.694;8.940;2022-07-15T00:57:21;14.50;99.90
17669;DHT22;8953;48.694;8.940;2022-07-15T00:59:50;14.40;99.90
17669;DHT22;8953;48.694;8.940;2022-07-15T01:02:20;14.40;99.90
17669;DHT22;8953;48.694;8.940;2022-07-15T01:04:48;14.40;99.90
17669;DHT22;8953;48.694;8.940;2022-07-15T01:07:15;14.30;99.90
17669;DHT22;8953;48.694;8.940;2022-07-15T01:09:43;14.40;99.90
17669;DHT22;8953;48.694;8.940;2022-07-15T01:12:10;14.40;99.90
17669;DHT22;8953;48.694;8.940;2022-07-15T01:14:37;14.30;99.90
17669;DHT22;8953;48.694;8.940;2022-07-15T01:17:08;14.20;99.90
17669;DHT22;8953;48.694;8.940;2022-07-15T01:19:38;14.20;99.90
17669;DHT22;8953;48.694;8.940;2022-07-15T01:22:07;14.20;99.90
17669;DHT22;8953;48.694;8.940;2022-07-15T01:24:34;14.10;99.90
17669;DHT22;8953;48.694;8.940;2022-07-15T01:27:02;14.10;99.90
17669;DHT22;8953;48.694;8.940;2022-07-15T01:29:29;14.00;99.90
17669;DHT22;8953;48.694;8.940;2022-07-15T01:31:56;14.00;99.90
17669;DHT22;8953;48.694;8.940;2022-07-15T01:34:23;13.90;99.90
17669;DHT22;8953;48.694;8.940;2022-07-15T01:36:51;13.80;99.90
17669;DHT22;8953;48.694;8.940;2022-07-15T01:39:19;13.80;99.90
17669;DHT22;8953;48.694;8.940;2022-07-15T01:41:46;13.80;99.90
17669;DHT22;8953;48.694;8.940;2022-07-15T01:44:13;13.70;99.90
17669;DHT22;8953;48.694;8.940;2022-07-15T01:46:41;13.70;99.90
17669;DHT22;8953;48.694;8.940;2022-07-15T01:49:08;13.60;99.90
17669;DHT22;8953;48.694;8.940;2022-07-15T01:51:53;13.50;99.90
17669;DHT22;8953;48.694;8.940;2022-07-15T01:54:23;13.50;99.90
17669;DHT22;8953;48.694;8.940;2022-07-15T01:56:51;13.50;99.90
17669;DHT22;8953;48.694;8.940;2022-07-15T01:59:20;13.40;99.90
17669;DHT22;8953;48.694;8.940;2022-07-15T02:01:49;13.40;99.90
17669;DHT22;8953;48.694;8.940;2022-07-15T02:04:17;13.30;99.90
17669;DHT22;8953;48.694;8.940;2022-07-15T02:06:44;13.30;99.90
17669;DHT22;8953;48.694;8.940;2022-07-15T02:09:12;13.20;99.90
17669;DHT22;8953;48.694;8.940;2022-07-15T02:11:40;13.10;99.90
17669;DHT22;8953;48.694;8.940;2022-07-15T02:14:11;13.10;99.90
17669;DHT22;8953;48.694;8.940;2022-07-15T02:16:39;13.10;99.90
17669;DHT22;8953;48.694;8.940;2022-07-15T02:19:08;13.00;99.90
17669;DHT22;8953;48.694;8.940;2022-07-15T02:21:36;13.10;99.90
17669;DHT22;8953;48.694;8.940;2022-07-15T02:24:07;13.00;99.90
17669;DHT22;8953;48.694;8.940;2022-07-15T02:26:35;13.00;99.90
17669;DHT22;8953;48.694;8.940;2022-07-15T02:29:03;12.90;99.90
17669;DHT22;8953;48.694;8.940;2022-07-15T02:31:31;12.90;99.90
17669;DHT22;8953;48.694;8.940;2022-07-15T02:33:58;12.80;99.90
17669;DHT22;8953;48.694;8.940;2022-07-15T02:36:25;12.80;99.90
17669;DHT22;8953;48.694;8.940;2022-07-15T02:38:52;12.70;99.90
17669;DHT22;8953;48.694;8.940;2022-07-15T02:41:19;12.70;99.90
17669;DHT22;8953;48.694;8.940;2022-07-15T02:43:46;12.60;99.90
17669;DHT22;8953;48.694;8.940;2022-07-15T02:46:15;12.60;99.90
17669;DHT22;8953;48.694;8.940;2022-07-15T02:48:43;12.50;99.90
17669;DHT22;8953;48.694;8.940;2022-07-15T02:51:10;12.50;99.90
17669;DHT22;8953;48.694;8.940;2022-07-15T02:53:37;12.50;99.90
17669;DHT22;8953;48.694;8.940;2022-07-15T02:56:05;12.40;99.90
17669;DHT22;8953;48.694;8.940;2022-07-15T02:58:33;12.30;99.90
17669;DHT22;8953;48.694;8.940;2022-07-15T03:01:00;12.30;99.90
17669;DHT22;8953;48.694;8.940;2022-07-15T03:03:29;12.30;99.90
17669;DHT22;8953;48.694;8.940;2022-07-15T03:05:57;12.20;99.90
17669;DHT22;8953;48.694;8.940;2022-07-15T03:08:25;12.20;99.90
17669;DHT22;8953;48.694;8.940;2022-07-15T03:10:52;12.20;99.90
17669;DHT22;8953;48.694;8.940;2022-07-15T03:13:19;12.10;99.90
17669;DHT22;8953;48.694;8.940;2022-07-15T03:15:46;12.10;99.90
17669;DHT22;8953;48.694;8.940;2022-07-15T03:18:13;12.00;99.90
17669;DHT22;8953;48.694;8.940;2022-07-15T03:20:42;12.00;99.90
17669;DHT22;8953;48.694;8.940;2022-07-15T03:23:11;12.00;99.90
17669;DHT22;8953;48.694;8.940;2022-07-15T03:25:39;11.90;99.90
17669;DHT22;8953;48.694;8.940;2022-07-15T03:28:06;11.90;99.90
17669;DHT22;8953;48.694;8.940;2022-07-15T03:30:33;11.90;99.90
17669;DHT22;8953;48.694;8.940;2022-07-15T03:33:01;11.90;99.90
17669;DHT22;8953;48.694;8.940;2022-07-15T03:35:28;11.80;99.90
17669;DHT22;8953;48.694;8.940;2022-07-15T03:37:56;11.80;99.90
17669;DHT22;8953;48.694;8.940;2022-07-15T03:40:24;11.70;99.90
17669;DHT22;8953;48.694;8.940;2022-07-15T03:42:51;11.80;99.90
17669;DHT22;8953;48.694;8.940;2022-07-15T03:45:18;11.80;99.90
17669;DHT22;8953;48.694;8.940;2022-07-15T03:47:46;11.80;99.90
17669;DHT22;8953;48.694;8.940;2022-07-15T03:50:13;11.80;99.90
17669;DHT22;8953;48.694;8.940;2022-07-15T03:52:40;11.80;99.90
17669;DHT22;8953;48.694;8.940;2022-07-15T03:55:09;11.70;99.90
17669;DHT22;8953;48.694;8.940;2022-07-15T03:57:37;11.70;99.90
17669;DHT22;8953;48.694;8.940;2022-07-15T04:00:05;11.70;99.90
17669;DHT22;8953;48.694;8.940;2022-07-15T04:02:33;11.70;99.90
17669;DHT22;8953;48.694;8.940;2022-07-15T04:05:00;11.80;99.90
17669;DHT22;8953;48.694;8.940;2022-07-15T04:07:27;11.80;99.90
17669;DHT22;8953;48.694;8.940;2022-07-15T04:09:54;11.80;99.90
17669;DHT22;8953;48.694;8.940;2022-07-15T04:12:23;11.90;99.90
17669;DHT22;8953;48.694;8.940;2022-07-15T04:14:50;12.00;99.90
17669;DHT22;8953;48.694;8.940;2022-07-15T04:17:17;12.00;99.90
17669;DHT22;8953;48.694;8.940;2022-07-15T04:19:44;12.10;99.90
17669;DHT22;8953;48.694;8.940;2022-07-15T04:22:11;12.20;99.90
17669;DHT22;8953;48.694;8.940;2022-07-15T04:24:38;12.20;99.90
17669;DHT22;8953;48.694;8.940;2022-07-15T04:27:05;12.20;99.90
17669;DHT22;8953;48.694;8.940;2022-07-15T04:29:34;12.20;99.90
17669;DHT22;8953;48.694;8.940;2022-07-15T04:32:03;12.20;99.90
17669;DHT22;8953;48.694;8.940;2022-07-15T04:34:31;12.30;99.90
17669;DHT22;8953;48.694;8.940;2022-07-15T04:36:58;12.30;99.90
17669;DHT22;8953;48.694;8.940;2022-07-15T04:39:26;12.30;99.90
17669;DHT22;8953;48.694;8.940;2022-07-15T04:41:53;12.40;99.90
17669;DHT22;8953;48.694;8.940;2022-07-15T04:44:21;12.60;99.90
17669;DHT22;8953;48.694;8.940;2022-07-15T04:46:49;12.60;99.90
17669;DHT22;8953;48.694;8.940;2022-07-15T04:49:18;12.70;99.90
17669;DHT22;8953;48.694;8.940;2022-07-15T04:52:02;12.80;99.90
17669;DHT22;8953;48.694;8.940;2022-07-15T04:54:30;12.80;99.90
17669;DHT22;8953;48.694;8.940;2022-07-15T04:56:57;12.90;99.90
17669;DHT22;8953;48.694;8.940;2022-07-15T04:59:25;13.00;99.90
17669;DHT22;8953;48.694;8.940;2022-07-15T05:01:54;13.10;99.90
17669;DHT22;8953;48.694;8.940;2022-07-15T05:04:21;13.30;99.90
17669;DHT22;8953;48.694;8.940;2022-07-15T05:06:48;13.40;99.90
17669;DHT22;8953;48.694;8.940;2022-07-15T05:09:16;13.50;99.90
17669;DHT22;8953;48.694;8.940;2022-07-15T05:11:43;13.60;99.90
17669;DHT22;8953;48.694;8.940;2022-07-15T05:14:10;13.80;99.90
17669;DHT22;8953;48.694;8.940;2022-07-15T05:16:38;14.00;99.90
17669;DHT22;8953;48.694;8.940;2022-07-15T05:19:07;14.20;99.90
17669;DHT22;8953;48.694;8.940;2022-07-15T05:21:34;14.50;99.90
17669;DHT22;8953;48.694;8.940;2022-07-15T05:24:01;14.80;99.90
17669;DHT22;8953;48.694;8.940;2022-07-15T05:26:28;15.00;99.90
17669;DHT22;8953;48.694;8.940;2022-07-15T05:28:55;15.20;99.90
17669;DHT22;8953;48.694;8.940;2022-07-15T05:31:23;15.40;99.90
17669;DHT22;8953;48.694;8.940;2022-07-15T05:33:50;16.00;99.90
17669;DHT22;8953;48.694;8.940;2022-07-15T05:36:19;17.10;99.90
17669;DHT22;8953;48.694;8.940;2022-07-15T05:38:46;18.40;99.90
17669;DHT22;8953;48.694;8.940;2022-07-15T05:41:14;19.50;99.90
17669;DHT22;8953;48.694;8.940;2022-07-15T05:43:41;20.70;99.90
17669;DHT22;8953;48.694;8.940;2022-07-15T05:46:08;21.80;99.90
17669;DHT22;8953;48.694;8.940;2022-07-15T05:48:36;22.80;99.90
17669;DHT22;8953;48.694;8.940;2022-07-15T05:51:14;23.70;99.90
17669;DHT22;8953;48.694;8.940;2022-07-15T05:53:43;24.60;96.50
17669;DHT22;8953;48.694;8.940;2022-07-15T05:56:10;25.20;94.40
17669;DHT22;8953;48.694;8.940;2022-07-15T05:58:37;25.30;92.30
17669;DHT22;8953;48.694;8.940;2022-07-15T06:01:04;25.80;91.50
17669;DHT22;8953;48.694;8.940;2022-07-15T06:03:32;26.20;89.00
17669;DHT22;8953;48.694;8.940;2022-07-15T06:05:59;26.80;85.70
17669;DHT22;8953;48.694;8.940;2022-07-15T06:08:26;26.50;82.30
17669;DHT22;8953;48.694;8.940;2022-07-15T06:10:54;27.10;82.00
17669;DHT22;8953;48.694;8.940;2022-07-15T06:13:22;27.90;73.90
17669;DHT22;8953;48.694;8.940;2022-07-15T06:15:49;28.20;72.40
17669;DHT22;8953;48.694;8.940;2022-07-15T06:18:17;28.30;70.30
17669;DHT22;8953;48.694;8.940;2022-07-15T06:20:44;28.70;66.40
17669;DHT22;8953;48.694;8.940;2022-07-15T06:23:11;28.60;65.90
17669;DHT22;8953;48.694;8.940;2022-07-15T06:25:39;28.60;65.50
17669;DHT22;8953;48.694;8.940;2022-07-15T06:28:07;29.00;66.20
17669;DHT22;8953;48.694;8.940;2022-07-15T06:30:34;29.40;63.60
17669;DHT22;8953;48.694;8.940;2022-07-15T06:33:02;29.80;62.20
17669;DHT22;8953;48.694;8.940;2022-07-15T06:35:29;28.70;62.20
17669;DHT22;8953;48.694;8.940;2022-07-15T06:37:56;27.90;67.20
17669;DHT22;8953;48.694;8.940;2022-07-15T06:40:23;29.10;64.90
17669;DHT22;8953;48.694;8.940;2022-07-15T06:42:50;30.20;63.90
17669;DHT22;8953;48.694;8.940;2022-07-15T06:45:19;31.20;60.10
17669;DHT22;8953;48.694;8.940;2022-07-15T06:47:46;30.80;59.90
17669;DHT22;8953;48.694;8.940;2022-07-15T06:50:13;31.10;60.40
17669;DHT22;8953;48.694;8.940;2022-07-15T06:52:40;31.90;57.90
17669;DHT22;8953;48.694;8.940;2022-07-15T06:55:08;32.00;58.30
17669;DHT22;8953;48.694;8.940;2022-07-15T06:57:38;32.70;58.00
17669;DHT22;8953;48.694;8.940;2022-07-15T07:00:06;33.20;54.50
17669;DHT22;8953;48.694;8.940;2022-07-15T07:02:36;32.70;53.20
17669;DHT22;8953;48.694;8.940;2022-07-15T07:05:04;32.00;55.20
17669;DHT22;8953;48.694;8.940;2022-07-15T07:07:32;32.50;56.30
17669;DHT22;8953;48.694;8.940;2022-07-15T07:09:59;31.90;55.50
17669;DHT22;8953;48.694;8.940;2022-07-15T07:12:26;32.50;54.00
17669;DHT22;8953;48.694;8.940;2022-07-15T07:14:53;32.90;53.20
17669;DHT22;8953;48.694;8.940;2022-07-15T07:17:20;33.50;51.90
17669;DHT22;8953;48.694;8.940;2022-07-15T07:19:49;33.40;51.30
17669;DHT22;8953;48.694;8.940;2022-07-15T07:22:16;34.00;49.80
17669;DHT22;8953;48.694;8.940;2022-07-15T07:24:43;33.80;51.80
17669;DHT22;8953;48.694;8.940;2022-07-15T07:27:12;34.50;49.70
17669;DHT22;8953;48.694;8.940;2022-07-15T07:29:40;35.30;46.60
17669;DHT22;8953;48.694;8.940;2022-07-15T07:32:07;35.20;45.00
17669;DHT22;8953;48.694;8.940;2022-07-15T07:34:34;34.30;47.70
17669;DHT22;8953;48.694;8.940;2022-07-15T07:37:02;34.00;46.20
17669;DHT22;8953;48.694;8.940;2022-07-15T07:39:30;33.40;47.90
17669;DHT22;8953;48.694;8.940;2022-07-15T07:41:57;33.70;47.50
17669;DHT22;8953;48.694;8.940;2022-07-15T07:44:24;33.80;47.00
17669;DHT22;8953;48.694;8.940;2022-07-15T07:46:51;34.20;45.80
17669;DHT22;8953;48.694;8.940;2022-07-15T07:49:19;34.20;47.50
17669;DHT22;8953;48.694;8.940;2022-07-15T07:51:47;34.70;47.60
17669;DHT22;8953;48.694;8.940;2022-07-15T07:54:15;35.30;47.40
17669;DHT22;8953;48.694;8.940;2022-07-15T07:56:43;35.50;45.70
17669;DHT22;8953;48.694;8.940;2022-07-15T07:59:11;35.90;44.40
17669;DHT22;8953;48.694;8.940;2022-07-15T08:01:39;35.50;44.10
17669;DHT22;8953;48.694;8.940;2022-07-15T08:04:07;35.30;46.70
17669;DHT22;8953;48.694;8.940;2022-07-15T08:06:36;35.00;46.90
17669;DHT22;8953;48.694;8.940;2022-07-15T08:09:05;34.30;46.70
17669;DHT22;8953;48.694;8.940;2022-07-15T08:11:33;35.60;46.30
17669;DHT22;8953;48.694;8.940;2022-07-15T08:14:00;35.10;45.90
17669;DHT22;8953;48.694;8.940;2022-07-15T08:16:29;35.10;45.70
17669;DHT22;8953;48.694;8.940;2022-07-15T08:18:56;36.10;46.80
17669;DHT22;8953;48.694;8.940;2022-07-15T08:21:24;37.10;46.10
17669;DHT22;8953;48.694;8.940;2022-07-15T08:23:51;37.60;45.30
17669;DHT22;8953;48.694;8.940;2022-07-15T08:26:20;37.90;45.00
17669;DHT22;8953;48.694;8.940;2022-07-15T08:28:51;38.10;44.80
17669;DHT22;8953;48.694;8.940;2022-07-15T08:31:19;38.70;44.70
17669;DHT22;8953;48.694;8.940;2022-07-15T08:33:46;38.70;44.60
17669;DHT22;8953;48.694;8.940;2022-07-15T08:36:13;38.60;43.90
17669;DHT22;8953;48.694;8.940;2022-07-15T08:38:41;37.90;43.30
17669;DHT22;8953;48.694;8.940;2022-07-15T08:41:08;37.40;45.30
17669;DHT22;8953;48.694;8.940;2022-07-15T08:43:35;37.80;45.40
17669;DHT22;8953;48.694;8.940;2022-07-15T08:46:07;38.30;44.70
17669;DHT22;8953;48.694;8.940;2022-07-15T08:48:36;38.80;43.20
17669;DHT22;8953;48.694;8.940;2022-07-15T08:51:05;38.10;44.70
17669;DHT22;8953;48.694;8.940;2022-07-15T08:53:33;37.60;42.70
17669;DHT22;8953;48.694;8.940;2022-07-15T08:56:00;37.70;43.90
17669;DHT22;8953;48.694;8.940;2022-07-15T08:58:28;37.70;45.50
17669;DHT22;8953;48.694;8.940;2022-07-15T09:00:55;38.40;45.70
17669;DHT22;8953;48.694;8.940;2022-07-15T09:03:24;38.50;43.90
17669;DHT22;8953;48.694;8.940;2022-07-15T09:05:51;38.90;41.40
17669;DHT22;8953;48.694;8.940;2022-07-15T09:08:18;40.00;40.40
17669;DHT22;8953;48.694;8.940;2022-07-15T09:10:50;39.10;44.40
17669;DHT22;8953;48.694;8.940;2022-07-15T09:13:27;39.20;43.80
17669;DHT22;8953;48.694;8.940;2022-07-15T09:15:55;39.90;43.30
17669;DHT22;8953;48.694;8.940;2022-07-15T09:18:25;40.10;42.30
17669;DHT22;8953;48.694;8.940;2022-07-15T09:20:53;40.10;43.10
17669;DHT22;8953;48.694;8.940;2022-07-15T09:23:22;40.50;42.80
17669;DHT22;8953;48.694;8.940;2022-07-15T09:25:56;40.10;41.80
17669;DHT22;8953;48.694;8.940;2022-07-15T09:28:36;39.70;43.10
17669;DHT22;8953;48.694;8.940;2022-07-15T09:31:04;40.30;44.90
17669;DHT22;8953;48.694;8.940;2022-07-15T09:33:50;40.40;42.00
17669;DHT22;8953;48.694;8.940;2022-07-15T09:36:26;41.60;39.50
17669;DHT22;8953;48.694;8.940;2022-07-15T09:38:55;41.60;41.70
17669;DHT22;8953;48.694;8.940;2022-07-15T09:41:28;41.50;43.70
17669;DHT22;8953;48.694;8.940;2022-07-15T09:43:57;42.10;42.70
17669;DHT22;8953;48.694;8.940;2022-07-15T09:46:27;41.40;42.40
17669;DHT22;8953;48.694;8.940;2022-07-15T09:49:00;40.80;42.10
17669;DHT22;8953;48.694;8.940;2022-07-15T09:51:27;38.60;42.50
17669;DHT22;8953;48.694;8.940;2022-07-15T09:53:54;36.70;46.20
17669;DHT22;8953;48.694;8.940;2022-07-15T09:56:22;35.70;46.70
17669;DHT22;8953;48.694;8.940;2022-07-15T09:58:52;34.70;46.20
17669;DHT22;8953;48.694;8.940;2022-07-15T10:01:19;34.50;48.60
17669;DHT22;8953;48.694;8.940;2022-07-15T10:03:49;34.30;47.70
17669;DHT22;8953;48.694;8.940;2022-07-15T10:06:22;33.50;46.70
17669;DHT22;8953;48.694;8.940;2022-07-15T10:08:53;33.20;46.90
17669;DHT22;8953;48.694;8.940;2022-07-15T10:11:21;32.70;48.20
17669;DHT22;8953;48.694;8.940;2022-07-15T10:14:11;33.00;48.10
17669;DHT22;8953;48.694;8.940;2022-07-15T10:17:17;34.40;49.90
17669;DHT22;8953;48.694;8.940;2022-07-15T10:20:02;36.10;48.60
17669;DHT22;8953;48.694;8.940;2022-07-15T10:22:47;37.50;46.70
17669;DHT22;8953;48.694;8.940;2022-07-15T10:25:28;38.00;42.60
17669;DHT22;8953;48.694;8.940;2022-07-15T10:28:04;39.30;43.40
17669;DHT22;8953;48.694;8.940;2022-07-15T10:30:32;39.80;45.20
17669;DHT22;8953;48.694;8.940;2022-07-15T10:33:11;40.00;44.80
17669;DHT22;8953;48.694;8.940;2022-07-15T10:35:45;38.70;41.80
17669;DHT22;8953;48.694;8.940;2022-07-15T10:38:25;37.80;44.40
17669;DHT22;8953;48.694;8.940;2022-07-15T10:41:07;36.50;43.80
17669;DHT22;8953;48.694;8.940;2022-07-15T10:43:39;37.10;43.20
17669;DHT22;8953;48.694;8.940;2022-07-15T10:49:28;34.70;48.90
17669;DHT22;8953;48.694;8.940;2022-07-15T10:52:10;36.40;45.70
17669;DHT22;8953;48.694;8.940;2022-07-15T10:54:41;37.70;44.50
17669;DHT22;8953;48.694;8.940;2022-07-15T10:57:09;38.80;44.80
17669;DHT22;8953;48.694;8.940;2022-07-15T10:59:39;39.40;44.40
17669;DHT22;8953;48.694;8.940;2022-07-15T11:02:18;39.80;44.40
17669;DHT22;8953;48.694;8.940;2022-07-15T11:04:46;39.10;42.60
17669;DHT22;8953;48.694;8.940;2022-07-15T11:07:25;39.70;43.00
17669;DHT22;8953;48.694;8.940;2022-07-15T11:09:56;40.30;44.10
17669;DHT22;8953;48.694;8.940;2022-07-15T11:12:24;40.30;42.50
17669;DHT22;8953;48.694;8.940;2022-07-15T11:15:12;40.30;43.10
17669;DHT22;8953;48.694;8.940;2022-07-15T11:17:42;40.10;43.30
17669;DHT22;8953;48.694;8.940;2022-07-15T11:20:11;40.80;43.40
17669;DHT22;8953;48.694;8.940;2022-07-15T11:22:40;40.10;41.30
17669;DHT22;8953;48.694;8.940;2022-07-15T11:25:18;40.10;41.80
17669;DHT22;8953;48.694;8.940;2022-07-15T11:27:55;39.50;43.00
17669;DHT22;8953;48.694;8.940;2022-07-15T11:30:25;39.10;42.60
17669;DHT22;8953;48.694;8.940;2022-07-15T11:32:57;39.20;43.10
17669;DHT22;8953;48.694;8.940;2022-07-15T11:35:26;39.00;43.20
17669;DHT22;8953;48.694;8.940;2022-07-15T11:38:03;37.80;45.10
17669;DHT22;8953;48.694;8.940;2022-07-15T11:40:32;36.30;43.60
17669;DHT22;8953;48.694;8.940;2022-07-15T11:43:19;36.30;45.30
17669;DHT22;8953;48.694;8.940;2022-07-15T11:46:05;35.70;46.00
17669;DHT22;8953;48.694;8.940;2022-07-15T11:48:35;34.40;48.00
17669;DHT22;8953;48.694;8.940;2022-07-15T11:51:06;34.00;47.70
17669;DHT22;8953;48.694;8.940;2022-07-15T11:53:36;33.20;48.70
17669;DHT22;8953;48.694;8.940;2022-07-15T11:56:07;32.20;49.70
17669;DHT22;8953;48.694;8.940;2022-07-15T11:58:36;31.10;50.50
17669;DHT22;8953;48.694;8.940;2022-07-15T12:01:05;30.10;52.60
17669;DHT22;8953;48.694;8.940;2022-07-15T12:03:36;30.00;53.20
17669;DHT22;8953;48.694;8.940;2022-07-15T12:06:08;30.10;53.20
17669;DHT22;8953;48.694;8.940;2022-07-15T12:08:39;30.20;53.20
17669;DHT22;8953;48.694;8.940;2022-07-15T12:11:20;30.20;53.20
17669;DHT22;8953;48.694;8.940;2022-07-15T12:13:51;29.90;54.00
17669;DHT22;8953;48.694;8.940;2022-07-15T12:16:27;29.90;53.80
17669;DHT22;8953;48.694;8.940;2022-07-15T12:18:57;30.10;53.90
17669;DHT22;8953;48.694;8.940;2022-07-15T12:21:26;30.10;54.10
17669;DHT22;8953;48.694;8.940;2022-07-15T12:24:00;29.50;53.50
17669;DHT22;8953;48.694;8.940;2022-07-15T12:26:30;29.70;53.60
17669;DHT22;8953;48.694;8.940;2022-07-15T12:29:01;30.10;54.10
17669;DHT22;8953;48.694;8.940;2022-07-15T12:31:30;30.20;53.30
17669;DHT22;8953;48.694;8.940;2022-07-15T12:33:58;30.10;54.40
17669;DHT22;8953;48.694;8.940;2022-07-15T12:36:27;30.20;53.20
17669;DHT22;8953;48.694;8.940;2022-07-15T12:39:04;29.70;55.00
17669;DHT22;8953;48.694;8.940;2022-07-15T12:41:33;29.40;56.00
17669;DHT22;8953;48.694;8.940;2022-07-15T12:44:02;29.20;54.20
17669;DHT22;8953;48.694;8.940;2022-07-15T12:46:50;29.10;55.60
17669;DHT22;8953;48.694;8.940;2022-07-15T12:49:46;28.90;56.00
17669;DHT22;8953;48.694;8.940;2022-07-15T12:52:18;28.60;56.60
17669;DHT22;8953;48.694;8.940;2022-07-15T12:54:49;28.50;56.70
17669;DHT22;8953;48.694;8.940;2022-07-15T12:57:25;28.50;56.50
17669;DHT22;8953;48.694;8.940;2022-07-15T12:59:54;28.70;55.70
17669;DHT22;8953;48.694;8.940;2022-07-15T13:02:21;29.00;55.80
17669;DHT22;8953;48.694;8.940;2022-07-15T13:04:49;29.10;54.80
17669;DHT22;8953;48.694;8.940;2022-07-15T13:07:17;29.30;55.80
17669;DHT22;8953;48.694;8.940;2022-07-15T13:09:44;29.70;56.20
17669;DHT22;8953;48.694;8.940;2022-07-15T13:12:13;30.10;55.00
17669;DHT22;8953;48.694;8.940;2022-07-15T13:14:42;29.90;53.70
17669;DHT22;8953;48.694;8.940;2022-07-15T13:17:09;30.20;54.90
17669;DHT22;8953;48.694;8.940;2022-07-15T13:19:37;30.20;53.30
17669;DHT22;8953;48.694;8.940;2022-07-15T13:22:04;30.30;52.90
17669;DHT22;8953;48.694;8.940;2022-07-15T13:24:32;30.30;54.80
17669;DHT22;8953;48.694;8.940;2022-07-15T13:26:59;30.30;54.50
17669;DHT22;8953;48.694;8.940;2022-07-15T13:29:26;30.20;54.10
17669;DHT22;8953;48.694;8.940;2022-07-15T13:31:55;30.30;54.50
17669;DHT22;8953;48.694;8.940;2022-07-15T13:34:22;30.30;54.90
17669;DHT22;8953;48.694;8.940;2022-07-15T13:36:49;30.30;53.90
17669;DHT22;8953;48.694;8.940;2022-07-15T13:39:16;30.10;54.40
17669;DHT22;8953;48.694;8.940;2022-07-15T13:41:43;30.20;53.20
17669;DHT22;8953;48.694;8.940;2022-07-15T13:44:10;30.10;54.20
17669;DHT22;8953;48.694;8.940;2022-07-15T13:46:38;30.00;54.80
17669;DHT22;8953;48.694;8.940;2022-07-15T13:49:06;29.70;54.40
17669;DHT22;8953;48.694;8.940;2022-07-15T13:51:33;29.50;54.40
17669;DHT22;8953;48.694;8.940;2022-07-15T13:54:02;29.20;55.50
17669;DHT22;8953;48.694;8.940;2022-07-15T13:56:29;29.00;55.50
17669;DHT22;8953;48.694;8.940;2022-07-15T13:58:56;28.60;55.20
17669;DHT22;8953;48.694;8.940;2022-07-15T14:01:25;28.30;56.20
17669;DHT22;8953;48.694;8.940;2022-07-15T14:03:53;28.40;57.10
17669;DHT22;8953;48.694;8.940;2022-07-15T14:06:22;28.30;56.40
17669;DHT22;8953;48.694;8.940;2022-07-15T14:08:49;28.10;55.50
17669;DHT22;8953;48.694;8.940;2022-07-15T14:11:16;28.00;57.30
17669;DHT22;8953;48.694;8.940;2022-07-15T14:13:44;28.00;57.10
17669;DHT22;8953;48.694;8.940;2022-07-15T14:16:11;27.90;57.00
17669;DHT22;8953;48.694;8.940;2022-07-15T14:18:38;27.80;56.90
17669;DHT22;8953;48.694;8.940;2022-07-15T14:21:13;27.70;57.80
17669;DHT22;8953;48.694;8.940;2022-07-15T14:23:44;27.70;58.00
17669;DHT22;8953;48.694;8.940;2022-07-15T14:26:11;27.70;57.80
17669;DHT22;8953;48.694;8.940;2022-07-15T14:28:39;27.60;57.50
17669;DHT22;8953;48.694;8.940;2022-07-15T14:31:07;27.50;58.30
17669;DHT22;8953;48.694;8.940;2022-07-15T14:33:35;27.40;58.00
17669;DHT22;8953;48.694;8.940;2022-07-15T14:36:02;27.20;58.30
17669;DHT22;8953;48.694;8.940;2022-07-15T14:38:29;27.10;58.10
17669;DHT22;8953;48.694;8.940;2022-07-15T14:40:59;26.90;58.20
17669;DHT22;8953;48.694;8.940;2022-07-15T14:43:26;26.70;57.60
17669;DHT22;8953;48.694;8.940;2022-07-15T14:45:53;26.70;58.70
17669;DHT22;8953;48.694;8.940;2022-07-15T14:48:21;26.60;58.60
17669;DHT22;8953;48.694;8.940;2022-07-15T14:50:48;26.40;58.80
17669;DHT22;8953;48.694;8.940;2022-07-15T14:53:17;26.30;58.50
17669;DHT22;8953;48.694;8.940;2022-07-15T14:55:44;26.20;59.40
17669;DHT22;8953;48.694;8.940;2022-07-15T14:58:13;26.20;59.20
17669;DHT22;8953;48.694;8.940;2022-07-15T15:00:45;26.10;59.60
17669;DHT22;8953;48.694;8.940;2022-07-15T15:03:15;26.10;59.20
17669;DHT22;8953;48.694;8.940;2022-07-15T15:05:43;26.00;58.80
17669;DHT22;8953;48.694;8.940;2022-07-15T15:08:10;26.00;59.10
17669;DHT22;8953;48.694;8.940;2022-07-15T15:10:37;26.00;59.60
17669;DHT22;8953;48.694;8.940;2022-07-15T15:13:04;26.00;59.00
17669;DHT22;8953;48.694;8.940;2022-07-15T15:15:33;26.00;59.80
17669;DHT22;8953;48.694;8.940;2022-07-15T15:18:00;25.90;59.20
17669;DHT22;8953;48.694;8.940;2022-07-15T15:20:28;25.90;59.60
17669;DHT22;8953;48.694;8.940;2022-07-15T15:22:55;25.90;59.20
17669;DHT22;8953;48.694;8.940;2022-07-15T15:25:22;25.90;59.70
17669;DHT22;8953;48.694;8.940;2022-07-15T15:28:04;25.90;58.50
17669;DHT22;8953;48.694;8.940;2022-07-15T15:30:33;25.80;59.40
17669;DHT22;8953;48.694;8.940;2022-07-15T15:33:00;25.80;59.80
17669;DHT22;8953;48.694;8.940;2022-07-15T15:35:27;25.80;59.60
17669;DHT22;8953;48.694;8.940;2022-07-15T15:37:55;25.80;59.40
17669;DHT22;8953;48.694;8.940;2022-07-15T15:40:22;25.70;59.00
17669;DHT22;8953;48.694;8.940;2022-07-15T15:42:49;25.60;59.20
17669;DHT22;8953;48.694;8.940;2022-07-15T15:45:17;25.50;59.30
17669;DHT22;8953;48.694;8.940;2022-07-15T15:47:45;25.40;58.90
17669;DHT22;8953;48.694;8.940;2022-07-15T15:50:12;25.40;59.80
17669;DHT22;8953;48.694;8.940;2022-07-15T15:52:39;25.40;59.60
17669;DHT22;8953;48.694;8.940;2022-07-15T15:55:07;25.40;59.60
17669;DHT22;8953;48.694;8.940;2022-07-15T15:57:34;25.30;59.80
17669;DHT22;8953;48.694;8.940;2022-07-15T16:00:02;25.40;59.90